Time;durP1;ratioP1;P1;durP2;ratioP2;P2;SDS_P1;SDS_P2;PMS_P1;PMS_P2;Temp;Humidity;BMP_temperature;BMP_pressure;BME280_temperature;BME280_humidity;BME280_pressure;Samples;Min_cycle;Max_cycle;Signal;HPM_P1;HPM_P2
2023/01/07 00:00:50;;;;;;;6.17;5.57;;;;;;;-143.84;73.54;45159.50;5095208;28;20434;-78
2023/01/07 00:03:17;;;;;;;6.87;6.20;;;;;;;-143.84;73.78;45174.75;5095084;28;20827;-78
2023/01/07 00:05:45;;;;;;;5.90;5.40;;;;;;;-143.84;73.21;45151.91;5095359;28;20442;-78
2023/01/07 00:08:12;;;;;;;6.30;5.80;;;;;;;-143.84;72.82;45153.81;5095064;28;20434;-78
2023/01/07 00:10:41;;;;;;;5.67;5.17;;;;;;;-143.84;73.02;45142.38;5094802;28;20534;-78
2023/01/07 00:13:09;;;;;;;7.57;6.07;;;;;;;-143.84;72.79;45172.84;5095301;28;20439;-78
2023/01/07 00:15:36;;;;;;;6.20;5.70;;;;;;;-143.84;73.18;45138.56;5095136;28;20492;-78
2023/01/07 00:18:03;;;;;;;9.00;5.57;;;;;;;-143.84;72.29;45170.94;5094724;28;20839;-78
2023/01/07 00:20:30;;;;;;;6.00;5.50;;;;;;;-143.84;72.11;45165.22;5095232;28;20427;-78
2023/01/07 00:22:57;;;;;;;6.67;5.57;;;;;;;-143.84;71.88;45163.31;5094777;28;20484;-78
2023/01/07 00:25:24;;;;;;;6.07;4.93;;;;;;;-143.84;71.39;45195.69;5094693;28;20467;-78
2023/01/07 00:27:52;;;;;;;7.40;6.07;;;;;;;-143.84;71.71;45155.69;5094856;28;20440;-78
2023/01/07 00:30:20;;;;;;;10.30;6.67;;;;;;;-143.84;72.11;45159.50;5094422;28;20973;-78
2023/01/07 00:33:03;;;;;;;9.37;6.27;;;;;;;-143.84;72.02;45148.09;5095065;28;20581;-78
2023/01/07 00:35:31;;;;;;;7.83;5.50;;;;;;;-143.84;70.63;45130.94;5094472;28;21002;-78
2023/01/07 00:37:59;;;;;;;7.93;5.60;;;;;;;-143.84;71.28;45153.81;5094859;28;20506;-78
2023/01/07 00:40:26;;;;;;;9.77;7.53;;;;;;;-143.84;72.93;45161.41;5094709;28;20983;-78
2023/01/07 00:43:00;;;;;;;10.67;6.37;;;;;;;-143.84;71.90;45188.06;5094519;28;20434;-78
2023/01/07 00:45:29;;;;;;;5.80;4.93;;;;;;;-143.84;72.89;45115.72;5094366;28;20434;-78
2023/01/07 00:47:57;;;;;;;9.87;7.20;;;;;;;-143.84;72.43;45186.16;5094931;28;21136;-78
2023/01/07 00:50:26;;;;;;;8.17;7.00;;;;;;;-143.84;73.27;45153.81;5093813;28;20438;-78
2023/01/07 00:52:53;;;;;;;9.57;7.27;;;;;;;-143.84;73.59;45153.81;5094253;28;20940;-78
2023/01/07 00:55:21;;;;;;;8.90;7.10;;;;;;;-143.84;73.11;45150.00;5094028;28;20447;-78
2023/01/07 00:57:48;;;;;;;9.07;7.20;;;;;;;-143.84;72.72;45170.94;5094355;28;20438;-78
2023/01/07 01:00:19;;;;;;;10.07;7.00;;;;;;;-143.84;72.15;45155.69;5094173;28;20532;-78
2023/01/07 01:02:47;;;;;;;13.77;8.70;;;;;;;-143.84;72.63;45182.38;5094158;28;20434;-78
2023/01/07 01:05:15;;;;;;;26.83;14.60;;;;;;;-143.84;72.70;45172.84;5094168;28;20441;-78
2023/01/07 01:07:42;;;;;;;40.47;23.47;;;;;;;-143.84;72.88;45150.00;5093990;28;20508;-78
2023/01/07 01:10:12;;;;;;;34.03;17.97;;;;;;;-143.84;73.76;45148.09;5093755;28;20998;-78
2023/01/07 01:12:40;;;;;;;31.33;16.50;;;;;;;-143.84;73.27;45169.03;5094041;28;20455;-78
2023/01/07 01:15:10;;;;;;;21.77;12.43;;;;;;;-143.84;73.37;45140.47;5093760;28;20439;-78
2023/01/07 01:17:38;;;;;;;16.50;8.87;;;;;;;-143.84;72.71;45151.91;5094262;28;20488;-78
2023/01/07 01:20:08;;;;;;;10.73;8.40;;;;;;;-143.84;73.22;45163.31;5093697;28;21016;-78
2023/01/07 01:22:35;;;;;;;13.60;8.20;;;;;;;-143.84;73.47;45172.84;5094100;28;20426;-78
2023/01/07 01:25:02;;;;;;;13.13;9.13;;;;;;;-143.84;73.42;45161.41;5093683;28;20450;-78
2023/01/07 01:27:30;;;;;;;17.67;9.33;;;;;;;-143.84;74.42;45157.59;5093651;28;20447;-78
2023/01/07 01:29:58;;;;;;;20.93;12.30;;;;;;;-143.84;74.46;45144.28;5093864;28;20513;-78
2023/01/07 01:32:25;;;;;;;20.00;11.77;;;;;;;-143.84;74.25;45172.84;5093909;28;20525;-78
2023/01/07 01:34:54;;;;;;;27.97;13.77;;;;;;;-143.84;74.44;45123.34;5093552;28;20436;-78
2023/01/07 01:37:21;;;;;;;35.13;11.80;;;;;;;-143.84;75.13;45148.09;5093328;28;20437;-78
2023/01/07 01:39:48;;;;;;;22.93;12.70;;;;;;;-143.84;74.92;45151.91;5093272;28;20473;-78
2023/01/07 01:42:19;;;;;;;16.60;9.07;;;;;;;-143.84;74.99;45153.81;5093423;28;20445;-78
2023/01/07 01:44:49;;;;;;;11.20;7.87;;;;;;;-143.84;74.98;45161.41;5093609;28;20442;-78
2023/01/07 01:47:22;;;;;;;11.93;7.90;;;;;;;-143.84;75.67;45163.31;5093086;28;20839;-78
2023/01/07 01:49:58;;;;;;;13.47;8.10;;;;;;;-143.84;75.90;45161.41;5093209;28;20498;-78
2023/01/07 01:52:32;;;;;;;9.20;7.13;;;;;;;-143.84;75.53;45153.81;5093069;28;20433;-78
2023/01/07 01:55:03;;;;;;;7.93;6.17;;;;;;;-143.84;74.64;45144.28;5093300;28;20445;-78
2023/01/07 01:57:33;;;;;;;6.30;5.70;;;;;;;-143.84;74.93;45167.13;5093300;28;20501;-78
2023/01/07 02:00:00;;;;;;;6.60;6.10;;;;;;;-143.84;75.03;45138.56;5093110;28;20518;-78
2023/01/07 02:02:33;;;;;;;6.37;5.67;;;;;;;-143.84;75.18;45159.50;5092314;28;20869;-78
2023/01/07 02:05:03;;;;;;;6.80;6.07;;;;;;;-143.84;75.21;45151.91;5093051;28;20437;-78
2023/01/07 02:07:30;;;;;;;6.60;5.60;;;;;;;-143.84;74.78;45172.84;5093005;28;20792;-78
2023/01/07 02:10:01;;;;;;;7.23;5.20;;;;;;;-143.84;73.53;45159.50;5092611;28;20450;-78
2023/01/07 02:12:39;;;;;;;5.03;4.63;;;;;;;-143.84;73.76;45167.13;5093354;28;20504;-78
2023/01/07 02:15:11;;;;;;;6.60;4.60;;;;;;;-143.84;73.31;45174.75;5092872;28;20993;-78
2023/01/07 02:18:05;;;;;;;5.17;4.67;;;;;;;-143.84;73.61;45142.38;5092613;28;20490;-78
2023/01/07 02:20:48;;;;;;;5.43;4.93;;;;;;;-143.84;73.78;45155.69;5092059;28;20535;-78
2023/01/07 02:23:51;;;;;;;5.97;4.47;;;;;;;-143.84;73.19;45157.59;5089059;28;20963;-78
2023/01/07 02:27:03;;;;;;;6.83;4.93;;;;;;;-143.84;73.34;45151.91;5078895;28;20442;-78
2023/01/07 02:30:12;;;;;;;5.67;5.17;;;;;;;-143.84;74.13;45151.91;5090836;28;20442;-78
2023/01/07 02:33:07;;;;;;;10.07;5.60;;;;;;;-143.84;75.13;45155.69;5092430;28;20989;-78
2023/01/07 02:35:50;;;;;;;12.90;6.50;;;;;;;-143.84;75.18;45123.34;5092833;28;20435;-78
2023/01/07 02:38:24;;;;;;;7.10;6.20;;;;;;;-143.84;74.98;45134.75;5092297;28;20492;-78
2023/01/07 02:40:59;;;;;;;5.83;5.30;;;;;;;-143.84;75.90;45165.22;5092458;28;20925;-78
2023/01/07 02:43:34;;;;;;;6.17;5.57;;;;;;;-143.84;75.72;45130.94;5092528;28;20445;-78
2023/01/07 02:46:09;;;;;;;7.40;6.40;;;;;;;-143.84;76.17;45163.31;5092073;28;20494;-79
2023/01/07 02:48:39;;;;;;;6.87;6.20;;;;;;;-143.84;76.27;45155.69;5092273;28;20471;-79
2023/01/07 02:51:06;;;;;;;12.03;6.83;;;;;;;-143.84;75.83;45155.69;5092184;28;20490;-79
2023/01/07 02:53:34;;;;;;;8.17;6.67;;;;;;;-143.84;75.86;45167.13;5092392;28;20503;-78
2023/01/07 02:56:13;;;;;;;7.07;6.10;;;;;;;-143.84;75.67;45144.28;5092061;28;20428;-78
2023/01/07 02:59:08;;;;;;;6.70;5.70;;;;;;;-143.84;74.88;45153.81;5091962;28;20490;-78
2023/01/07 03:01:58;;;;;;;7.63;6.23;;;;;;;-143.84;74.43;45148.09;5091638;28;20480;-78
2023/01/07 03:04:48;;;;;;;13.33;6.10;;;;;;;-143.84;74.83;45170.94;5092008;28;20433;-77
2023/01/07 03:07:28;;;;;;;5.67;5.13;;;;;;;-143.84;74.70;45169.03;5091836;28;21069;-78
2023/01/07 03:10:02;;;;;;;8.93;4.97;;;;;;;-143.84;74.51;45144.28;5091315;28;20454;-78
2023/01/07 03:12:34;;;;;;;6.23;4.97;;;;;;;-143.84;74.16;45169.03;5091670;28;20448;-78
2023/01/07 03:15:09;;;;;;;6.40;4.30;;;;;;;-143.84;74.83;45150.00;5091742;28;20452;-77
2023/01/07 03:17:42;;;;;;;4.70;4.30;;;;;;;-143.84;75.13;45151.91;5091712;28;20437;-78
2023/01/07 03:20:13;;;;;;;4.00;3.67;;;;;;;-143.84;74.80;45148.09;5091544;28;20472;-77
2023/01/07 03:22:44;;;;;;;4.23;3.83;;;;;;;-143.84;74.64;45142.38;5091703;28;21010;-77
2023/01/07 03:25:13;;;;;;;5.53;4.70;;;;;;;-143.84;75.29;45151.91;5091919;28;20442;-78
2023/01/07 03:27:43;;;;;;;4.60;4.10;;;;;;;-143.84;75.39;45199.50;5091456;28;20494;-78
2023/01/07 03:30:15;;;;;;;11.27;4.70;;;;;;;-143.84;75.22;45155.69;5091667;28;20444;-78
2023/01/07 03:32:49;;;;;;;4.43;3.70;;;;;;;-143.84;75.07;45189.97;5091537;28;20455;-78
2023/01/07 03:35:20;;;;;;;6.70;4.00;;;;;;;-143.84;74.47;45163.31;5091328;28;20441;-78
2023/01/07 03:37:50;;;;;;;3.53;3.10;;;;;;;-143.84;74.68;45169.03;5091498;28;20428;-78
2023/01/07 03:40:19;;;;;;;6.30;3.47;;;;;;;-143.84;74.43;45167.13;5091294;28;20505;-78
2023/01/07 03:42:47;;;;;;;2.97;2.77;;;;;;;-143.84;74.90;45169.03;5091606;28;20474;-78
2023/01/07 03:45:16;;;;;;;3.67;3.37;;;;;;;-143.84;74.93;45155.69;5091347;28;20514;-78
2023/01/07 03:47:46;;;;;;;7.50;3.90;;;;;;;-143.84;75.18;45136.66;5091283;28;20509;-78
2023/01/07 03:50:14;;;;;;;8.47;3.33;;;;;;;-143.84;75.63;45155.69;5091493;28;20502;-78
2023/01/07 03:52:43;;;;;;;5.30;3.60;;;;;;;-143.84;76.31;45178.56;5091268;28;20448;-77
2023/01/07 03:55:11;;;;;;;3.20;3.00;;;;;;;-143.84;76.81;45163.31;5091921;28;20451;-78
2023/01/07 03:57:38;;;;;;;4.90;3.50;;;;;;;-143.84;76.09;45169.03;5091263;28;20460;-78
2023/01/07 04:00:07;;;;;;;4.07;3.70;;;;;;;-143.84;76.02;45151.91;5091295;28;21114;-78
2023/01/07 04:02:35;;;;;;;3.80;3.43;;;;;;;-143.84;75.92;45155.69;5091599;28;20799;-78
2023/01/07 04:05:02;;;;;;;6.33;3.60;;;;;;;-143.84;76.59;45157.59;5091311;28;20432;-78
2023/01/07 04:07:29;;;;;;;4.23;3.93;;;;;;;-143.84;77.06;45144.28;5091404;28;20797;-78
2023/01/07 04:09:58;;;;;;;7.33;5.40;;;;;;;-143.84;76.94;45151.91;5090809;28;20448;-78
2023/01/07 04:12:25;;;;;;;5.97;4.53;;;;;;;-143.84;77.54;45163.31;5091226;28;20451;-78
2023/01/07 04:14:52;;;;;;;4.60;4.20;;;;;;;-143.84;77.59;45186.16;5091492;28;20448;-78
2023/01/07 04:17:19;;;;;;;4.50;4.07;;;;;;;-143.84;78.11;45159.50;5091037;28;20436;-80
2023/01/07 04:19:46;;;;;;;5.77;4.40;;;;;;;-143.84;78.21;45163.31;5090922;28;20459;-80
2023/01/07 04:22:13;;;;;;;4.67;4.27;;;;;;;-143.84;78.28;45170.94;5090743;28;20476;-80
2023/01/07 04:24:40;;;;;;;5.47;4.77;;;;;;;-143.84;78.61;45201.41;5091382;28;20489;-81
2023/01/07 04:27:09;;;;;;;5.40;4.70;;;;;;;-143.84;78.91;45176.66;5093615;28;20440;-80
2023/01/07 04:29:36;;;;;;;8.87;5.93;;;;;;;-143.84;79.24;45153.81;5094915;28;20925;-81
2023/01/07 04:32:04;;;;;;;7.27;5.23;;;;;;;-143.84;79.00;45142.38;5094829;28;20443;-80
2023/01/07 04:34:31;;;;;;;7.13;4.97;;;;;;;-143.84;79.25;45136.66;5094460;28;20432;-80
2023/01/07 04:36:58;;;;;;;5.20;4.07;;;;;;;-143.84;79.36;45155.69;5094663;28;20440;-80
2023/01/07 04:39:25;;;;;;;4.67;4.20;;;;;;;-143.84;79.00;45134.75;5094326;28;20428;-80
2023/01/07 04:41:52;;;;;;;5.37;4.80;;;;;;;-143.84;79.14;45170.94;5094426;28;20493;-80
2023/01/07 04:44:21;;;;;;;6.10;3.97;;;;;;;-143.84;79.14;45159.50;5094088;28;20465;-80
2023/01/07 04:46:48;;;;;;;7.07;4.93;;;;;;;-143.84;79.99;45132.84;5094233;28;20505;-80
2023/01/07 04:49:15;;;;;;;4.50;4.10;;;;;;;-143.84;79.83;45153.81;5094117;28;20435;-80
2023/01/07 04:51:42;;;;;;;7.53;4.90;;;;;;;-143.84;80.67;45165.22;5094020;28;20440;-80
2023/01/07 04:54:09;;;;;;;5.63;4.80;;;;;;;-143.84;80.39;45169.03;5094145;28;20440;-80
2023/01/07 04:56:36;;;;;;;6.33;4.17;;;;;;;-143.84;80.59;45163.31;5094102;28;20967;-80
2023/01/07 04:59:03;;;;;;;4.33;4.03;;;;;;;-143.84;80.10;45157.59;5094232;28;21021;-80
2023/01/07 05:01:32;;;;;;;5.33;4.50;;;;;;;-143.84;79.71;45136.66;5093971;28;20533;-80
2023/01/07 05:04:00;;;;;;;4.30;4.00;;;;;;;-143.84;80.06;45153.81;5094150;28;20440;-80
2023/01/07 05:06:27;;;;;;;4.00;3.53;;;;;;;-143.84;80.24;45136.66;5093690;28;20542;-80
2023/01/07 05:08:54;;;;;;;4.40;4.03;;;;;;;-143.84;80.89;45161.41;5093971;28;20473;-80
2023/01/07 05:11:21;;;;;;;3.63;3.30;;;;;;;-143.84;81.42;45094.78;5093537;28;20491;-80
2023/01/07 05:13:49;;;;;;;3.67;3.37;;;;;;;-143.84;81.77;45140.47;5093556;28;20534;-80
2023/01/07 05:16:17;;;;;;;3.17;2.43;;;;;;;-143.84;81.61;45132.84;5093737;28;20493;-80
2023/01/07 05:18:46;;;;;;;3.63;3.33;;;;;;;-143.84;81.96;45102.38;5093539;28;20439;-80
2023/01/07 05:21:13;;;;;;;3.33;3.13;;;;;;;-143.84;81.79;45094.78;5093604;28;20529;-80
2023/01/07 05:23:40;;;;;;;3.70;3.40;;;;;;;-143.84;82.05;45115.72;5093550;28;20443;-80
2023/01/07 05:26:08;;;;;;;4.33;3.10;;;;;;;-143.84;81.87;45102.38;5093759;28;20447;-80
2023/01/07 05:28:36;;;;;;;3.93;2.43;;;;;;;-143.84;81.66;45142.38;5093544;28;20441;-81
2023/01/07 05:31:03;;;;;;;3.87;3.37;;;;;;;-143.84;81.79;45100.47;5092645;28;20432;-80
2023/01/07 05:33:31;;;;;;;3.47;3.17;;;;;;;-143.84;81.67;45111.91;5092697;28;20437;-81
2023/01/07 05:35:59;;;;;;;3.47;2.57;;;;;;;-143.84;81.69;45123.34;5091939;28;20443;-80
2023/01/07 05:38:26;;;;;;;2.60;2.40;;;;;;;-143.84;82.04;45138.56;5093105;28;20469;-81
2023/01/07 05:40:54;;;;;;;6.60;3.30;;;;;;;-143.84;82.35;45121.44;5093443;28;20501;-80
2023/01/07 05:43:21;;;;;;;6.33;3.03;;;;;;;-143.84;82.47;45111.91;5093115;28;20436;-80
2023/01/07 05:45:48;;;;;;;4.80;3.13;;;;;;;-143.84;82.88;45110.00;5093345;28;20945;-80
2023/01/07 05:48:16;;;;;;;3.87;3.33;;;;;;;-143.84;82.49;45070.00;5093816;28;20431;-80
2023/01/07 05:50:43;;;;;;;4.63;3.17;;;;;;;-143.84;82.85;45089.06;5092549;28;20797;-80
2023/01/07 05:53:13;;;;;;;3.20;3.00;;;;;;;-143.84;83.30;45070.00;5093209;28;20428;-79
2023/01/07 05:55:40;;;;;;;3.50;3.00;;;;;;;-143.84;83.24;45108.09;5093389;28;20489;-80
2023/01/07 05:58:08;;;;;;;5.57;2.93;;;;;;;-143.84;83.32;45085.25;5093126;28;20918;-80
2023/01/07 06:00:36;;;;;;;13.13;2.93;;;;;;;-143.84;83.54;45077.63;5092851;28;20545;-80
2023/01/07 06:03:03;;;;;;;2.97;2.67;;;;;;;-143.84;83.38;45083.34;5092954;28;20521;-81
2023/01/07 06:05:30;;;;;;;3.50;3.17;;;;;;;-143.84;82.96;45102.38;5092930;28;20424;-80
2023/01/07 06:07:58;;;;;;;10.87;2.90;;;;;;;-143.84;82.78;45085.25;5092439;28;20834;-80
2023/01/07 06:10:26;;;;;;;3.97;3.67;;;;;;;-143.84;82.87;45087.16;5091831;28;20479;-80
2023/01/07 06:12:53;;;;;;;7.93;3.83;;;;;;;-143.84;83.49;45066.22;5092242;28;20531;-80
2023/01/07 06:15:20;;;;;;;5.60;3.90;;;;;;;-143.84;83.57;45100.47;5092743;28;20490;-81
2023/01/07 06:17:47;;;;;;;13.43;10.10;;;;;;;-143.84;83.43;45079.53;5092404;28;20497;-80
2023/01/07 06:20:15;;;;;;;48.63;22.10;;;;;;;-143.84;83.34;45079.53;5072030;28;20484;-80
2023/01/07 06:22:42;;;;;;;58.57;31.53;;;;;;;-143.84;83.71;45047.16;5072554;28;20453;-80
2023/01/07 06:25:10;;;;;;;58.73;30.83;;;;;;;-143.84;83.80;45071.91;5072487;28;20528;-81
2023/01/07 06:27:40;;;;;;;36.37;24.97;;;;;;;-143.84;83.37;45087.16;5071705;28;20992;-79
2023/01/07 06:30:09;;;;;;;19.67;14.90;;;;;;;-143.84;84.54;45033.84;5072073;28;20539;-80
2023/01/07 06:32:40;;;;;;;26.47;17.80;;;;;;;-143.84;83.87;45087.16;5075170;28;20437;-80
2023/01/07 06:35:09;;;;;;;17.40;10.80;;;;;;;-143.84;83.71;45054.78;5075471;28;20952;-80
2023/01/07 06:37:36;;;;;;;12.80;9.30;;;;;;;-143.84;83.66;45037.66;5072383;28;20874;-79
2023/01/07 06:40:04;;;;;;;12.20;11.03;;;;;;;-143.84;84.07;45060.50;5072613;28;20429;-80
2023/01/07 06:42:31;;;;;;;7.13;6.53;;;;;;;-143.84;85.40;44961.47;5071879;28;20444;-78
2023/01/07 06:44:59;;;;;;;8.00;6.73;;;;;;;-143.84;85.78;44982.41;5072152;28;20491;-80
2023/01/07 06:47:27;;;;;;;10.37;6.40;;;;;;;-143.84;85.36;44955.75;5087047;28;20950;-80
2023/01/07 06:49:54;;;;;;;7.30;4.20;;;;;;;-143.84;85.76;44950.06;5091462;28;20442;-80
2023/01/07 06:52:21;;;;;;;3.87;3.50;;;;;;;-143.84;85.31;44961.47;5091877;28;20455;-76
2023/01/07 06:54:48;;;;;;;4.30;3.77;;;;;;;-143.84;85.06;44931.00;5092328;28;20425;-77
2023/01/07 06:57:15;;;;;;;5.83;3.87;;;;;;;-143.84;84.97;44955.75;5092350;28;20495;-77
2023/01/07 06:59:42;;;;;;;3.40;3.10;;;;;;;-143.84;83.78;45026.22;5092406;28;20436;-77
2023/01/07 07:02:18;;;;;;;4.20;2.87;;;;;;;-143.84;83.41;44999.56;5093049;28;20533;-79
2023/01/07 07:04:45;;;;;;;5.50;2.90;;;;;;;-143.84;82.81;45056.69;5094332;28;20439;-78
2023/01/07 07:07:13;;;;;;;3.10;2.80;;;;;;;-143.84;82.78;45028.13;5091626;28;21007;-78
2023/01/07 07:09:40;;;;;;;5.67;3.70;;;;;;;-143.84;81.61;45073.81;5091568;28;20472;-79
2023/01/07 07:12:08;;;;;;;6.77;4.10;;;;;;;-143.84;81.59;45054.78;5091256;28;21003;-80
2023/01/07 07:14:35;;;;;;;5.77;3.67;;;;;;;-143.84;82.35;45049.06;5091747;28;20462;-79
2023/01/07 07:17:03;;;;;;;4.80;4.33;;;;;;;-143.84;81.73;45062.41;5092194;28;20489;-80
2023/01/07 07:19:35;;;;;;;4.93;4.00;;;;;;;-143.84;81.42;45045.25;5091951;28;20441;-78
2023/01/07 07:22:02;;;;;;;5.20;2.40;;;;;;;-143.84;76.38;45117.63;5090468;28;21324;-78
2023/01/07 07:24:29;;;;;;;4.43;3.40;;;;;;;-143.84;77.97;45127.13;5091657;28;20443;-79
2023/01/07 07:26:56;;;;;;;3.07;2.80;;;;;;;-143.84;77.92;45123.34;5091824;28;20501;-78
2023/01/07 07:29:23;;;;;;;8.73;3.27;;;;;;;-143.84;76.38;45123.34;5091977;28;20432;-79
2023/01/07 07:31:50;;;;;;;3.83;2.77;;;;;;;-143.84;74.64;45140.47;5091624;28;20449;-79
2023/01/07 07:34:18;;;;;;;3.10;1.93;;;;;;;-143.84;72.31;45150.00;5091002;28;20445;-79
2023/01/07 07:36:46;;;;;;;2.07;1.60;;;;;;;-143.84;71.14;45138.56;5092033;28;20442;-79
2023/01/07 07:39:13;;;;;;;7.70;1.73;;;;;;;-143.84;70.23;45155.69;5091957;28;20442;-79
2023/01/07 07:41:41;;;;;;;3.87;2.60;;;;;;;-143.84;70.65;45146.19;5091424;28;20467;-79
2023/01/07 07:44:09;;;;;;;3.30;1.63;;;;;;;-143.84;69.77;45134.75;5091492;28;20499;-79
2023/01/07 07:46:36;;;;;;;2.90;2.20;;;;;;;-143.84;69.46;45144.28;5091287;28;20444;-79
2023/01/07 07:49:04;;;;;;;3.67;2.13;;;;;;;-143.84;69.03;45134.75;5091503;28;20509;-80
2023/01/07 07:51:32;;;;;;;1.87;1.67;;;;;;;-143.84;68.41;45138.56;5091369;28;20937;-79
2023/01/07 07:54:00;;;;;;;2.63;2.37;;;;;;;-143.84;67.55;45130.94;5091215;28;20438;-79
2023/01/07 07:56:27;;;;;;;4.80;4.30;;;;;;;-143.84;67.03;45134.75;5091676;28;20926;-79
2023/01/07 07:58:55;;;;;;;3.83;2.83;;;;;;;-143.84;66.47;45136.66;5091140;28;20502;-80
2023/01/07 08:01:22;;;;;;;5.30;2.20;;;;;;;-143.84;65.77;45144.28;5092837;28;20866;-79
2023/01/07 08:03:49;;;;;;;6.97;1.90;;;;;;;-143.84;65.40;45132.84;5092523;28;20441;-79
2023/01/07 08:06:16;;;;;;;5.40;2.60;;;;;;;-143.84;64.00;45148.09;5095309;28;20435;-79
2023/01/07 08:08:43;;;;;;;3.33;2.67;;;;;;;-143.84;64.48;45136.66;5095156;28;20950;-79
2023/01/07 08:11:12;;;;;;;2.67;2.40;;;;;;;-143.84;64.74;45136.66;5094958;28;20550;-79
2023/01/07 08:13:39;;;;;;;3.73;2.40;;;;;;;-143.84;64.43;45136.66;5094635;28;20805;-78
2023/01/07 08:16:06;;;;;;;8.13;2.83;;;;;;;-143.84;62.60;45136.66;5094871;28;20469;-79
2023/01/07 08:18:34;;;;;;;4.10;1.90;;;;;;;-143.84;61.72;45136.66;5094799;28;20466;-77
2023/01/07 08:21:02;;;;;;;2.87;2.17;;;;;;;-143.84;60.95;45142.38;5094564;28;20471;-79
2023/01/07 08:23:30;;;;;;;9.23;1.93;;;;;;;-143.84;61.51;45144.28;5094848;28;20434;-78
2023/01/07 08:25:59;;;;;;;6.07;2.40;;;;;;;-143.84;60.33;45117.63;5094818;28;20441;-78
2023/01/07 08:28:28;;;;;;;1.97;1.87;;;;;;;-143.84;59.00;45140.47;5095041;28;20436;-78
2023/01/07 08:30:55;;;;;;;2.80;1.60;;;;;;;-143.84;58.56;45140.47;5094520;28;20442;-78
2023/01/07 08:33:22;;;;;;;2.10;2.00;;;;;;;-143.84;59.27;45136.66;5094422;28;20473;-78
2023/01/07 08:35:50;;;;;;;7.90;1.93;;;;;;;-143.84;57.59;45119.53;5094698;28;20442;-78
2023/01/07 08:38:17;;;;;;;4.67;1.93;;;;;;;-143.84;58.07;45092.88;5094188;28;20446;-78
2023/01/07 08:40:44;;;;;;;4.40;2.03;;;;;;;-143.84;57.94;45129.03;5093438;28;20444;-79
2023/01/07 08:43:11;;;;;;;3.50;1.90;;;;;;;-143.84;57.92;45144.28;5092444;28;20523;-79
2023/01/07 08:45:40;;;;;;;4.70;1.93;;;;;;;-143.84;57.16;45115.72;5094133;28;20423;-77
2023/01/07 08:48:07;;;;;;;1.93;1.60;;;;;;;-143.84;55.49;45104.28;5094741;28;20479;-79
2023/01/07 08:50:34;;;;;;;4.03;1.80;;;;;;;-143.84;54.87;45117.63;5094687;28;20420;-79
2023/01/07 08:53:01;;;;;;;1.70;1.60;;;;;;;-143.84;54.82;45123.34;5094234;28;20443;-79
2023/01/07 08:55:29;;;;;;;3.47;1.57;;;;;;;-143.84;55.80;45094.78;5094003;28;20436;-79
2023/01/07 08:57:56;;;;;;;4.73;1.60;;;;;;;-143.84;54.50;45108.09;5094141;28;20432;-78
2023/01/07 09:00:24;;;;;;;1.70;1.60;;;;;;;-143.84;54.27;45123.34;5094286;28;20493;-78
2023/01/07 09:02:52;;;;;;;4.53;1.60;;;;;;;-143.84;55.09;45121.44;5093927;28;20471;-78
2023/01/07 09:05:19;;;;;;;4.90;1.70;;;;;;;-143.84;55.51;45098.56;5093789;28;20442;-78
2023/01/07 09:07:46;;;;;;;9.30;2.30;;;;;;;-143.84;53.74;45119.53;5094022;28;20428;-79
2023/01/07 09:10:14;;;;;;;7.63;2.07;;;;;;;-143.84;54.18;45136.66;5094039;28;20516;-78
2023/01/07 09:12:41;;;;;;;2.03;1.77;;;;;;;-143.84;55.32;45127.13;5093444;28;20854;-78
2023/01/07 09:15:09;;;;;;;8.97;2.10;;;;;;;-143.84;53.04;45094.78;5093622;28;20451;-78
2023/01/07 09:17:36;;;;;;;4.63;2.40;;;;;;;-143.84;52.85;45129.03;5093618;28;20858;-79
2023/01/07 09:20:07;;;;;;;2.73;1.90;;;;;;;-143.84;53.63;45129.03;5094017;28;20423;-78
2023/01/07 09:22:36;;;;;;;3.10;1.90;;;;;;;-143.84;53.97;45104.28;5093646;28;20474;-78
2023/01/07 09:25:04;;;;;;;4.33;2.57;;;;;;;-143.84;54.80;45127.13;5093687;28;20442;-78
2023/01/07 09:27:31;;;;;;;16.53;2.93;;;;;;;-143.84;53.89;45125.22;5093591;28;20443;-78
2023/01/07 09:29:58;;;;;;;2.97;2.47;;;;;;;-143.84;52.32;45115.72;5093453;28;20434;-79
2023/01/07 09:32:26;;;;;;;9.80;3.00;;;;;;;-143.84;54.18;45096.66;5093386;28;20443;-79
2023/01/07 09:34:53;;;;;;;6.80;2.10;;;;;;;-143.84;52.61;45110.00;5093457;28;20489;-79
2023/01/07 09:37:23;;;;;;;3.93;2.70;;;;;;;-143.84;53.91;45125.22;5093268;28;20440;-78
2023/01/07 09:39:50;;;;;;;8.47;2.83;;;;;;;-143.84;51.96;45117.63;5093677;28;20501;-78
2023/01/07 09:42:28;;;;;;;6.53;3.20;;;;;;;-143.84;51.58;45121.44;5093367;28;20485;-78
2023/01/07 09:45:05;;;;;;;3.40;3.10;;;;;;;-143.84;49.14;45110.00;5093584;28;20787;-80
2023/01/07 09:47:36;;;;;;;4.27;2.40;;;;;;;-143.84;52.12;45106.19;5093120;28;20436;-80
2023/01/07 09:50:11;;;;;;;6.10;3.10;;;;;;;-143.84;47.37;45110.00;5092892;28;20433;-79
2023/01/07 09:52:45;;;;;;;3.67;3.30;;;;;;;-143.84;47.87;45092.88;5092834;28;20452;-80
2023/01/07 09:55:19;;;;;;;15.90;4.00;;;;;;;-143.84;47.22;45117.63;5089576;28;20447;-79
2023/01/07 09:57:47;;;;;;;5.47;3.50;;;;;;;-143.84;46.24;45151.91;5091065;28;20492;-80
2023/01/07 10:00:20;;;;;;;12.23;3.47;;;;;;;-143.84;47.62;45094.78;5092399;28;20450;-80
2023/01/07 10:03:04;;;;;;;3.97;3.53;;;;;;;-143.84;48.53;45110.00;5092486;28;20483;-80
2023/01/07 10:05:39;;;;;;;6.53;3.40;;;;;;;-143.84;47.40;45136.66;5092452;28;20952;-81
2023/01/07 10:08:18;;;;;;;5.93;3.33;;;;;;;-143.84;47.75;45121.44;5092297;28;20933;-80
2023/01/07 10:10:52;;;;;;;5.07;3.27;;;;;;;-143.84;47.64;45106.19;5088933;28;20517;-81
2023/01/07 10:13:40;;;;;;;5.40;3.87;;;;;;;-143.84;48.75;45125.22;5092979;28;20431;-82
2023/01/07 10:16:15;;;;;;;6.50;4.93;;;;;;;-143.84;45.52;45108.09;5092605;28;20438;-82
2023/01/07 10:18:50;;;;;;;3.90;3.53;;;;;;;-143.84;46.07;45111.91;5091509;28;20965;-82
2023/01/07 10:21:24;;;;;;;7.80;5.00;;;;;;;-143.84;45.59;45083.34;5092030;28;20462;-81
2023/01/07 10:24:01;;;;;;;5.97;4.27;;;;;;;-143.84;47.97;45121.44;5090884;28;20445;-81
2023/01/07 10:26:36;;;;;;;7.80;4.00;;;;;;;-143.84;47.30;45117.63;5092594;28;20448;-81
2023/01/07 10:29:09;;;;;;;6.60;4.17;;;;;;;-143.84;46.46;45117.63;5091886;28;20447;-82
2023/01/07 10:31:36;;;;;;;9.70;4.10;;;;;;;-143.84;47.89;45111.91;5091901;28;20460;-82
2023/01/07 10:34:12;;;;;;;5.97;4.33;;;;;;;-143.84;48.90;45110.00;5091522;28;20981;-81
2023/01/07 10:36:51;;;;;;;11.47;4.93;;;;;;;-143.84;48.53;45111.91;5091701;28;20436;-81
2023/01/07 10:39:26;;;;;;;5.73;5.17;;;;;;;-143.84;49.73;45127.13;5092265;28;20933;-81
2023/01/07 10:42:01;;;;;;;8.60;6.77;;;;;;;-143.84;46.19;45163.31;5092223;28;20548;-81
2023/01/07 10:44:57;;;;;;;7.07;5.90;;;;;;;-143.84;47.12;45115.72;5089415;28;20439;-80
2023/01/07 10:47:38;;;;;;;8.70;6.40;;;;;;;-143.84;46.55;45136.66;5087460;28;20451;-81
2023/01/07 10:50:26;;;;;;;8.50;5.17;;;;;;;-143.84;49.72;45132.84;5090627;28;20444;-81
2023/01/07 10:53:01;;;;;;;5.03;4.60;;;;;;;-143.84;50.50;45104.28;5091911;28;20451;-81
2023/01/07 10:55:41;;;;;;;5.43;4.40;;;;;;;-143.84;51.50;45117.63;5089693;28;20459;-81
2023/01/07 10:58:10;;;;;;;4.97;4.47;;;;;;;-143.84;50.64;45121.44;5091506;28;20431;-82
2023/01/07 11:00:38;;;;;;;9.30;4.80;;;;;;;-143.84;51.96;45113.81;5091301;28;20443;-82
2023/01/07 11:03:16;;;;;;;7.60;4.87;;;;;;;-143.84;51.29;45104.28;5090248;28;20553;-82
2023/01/07 11:05:45;;;;;;;7.83;5.90;;;;;;;-143.84;50.70;45106.19;5088435;28;20444;-82
2023/01/07 11:08:20;;;;;;;9.20;5.43;;;;;;;-143.84;49.66;45108.09;5091347;28;20450;-82
2023/01/07 11:10:49;;;;;;;6.57;5.27;;;;;;;-143.84;49.25;45094.78;5091017;28;20491;-82
2023/01/07 11:13:21;;;;;;;4.80;4.40;;;;;;;-143.84;47.80;45117.63;5091055;28;20513;-81
2023/01/07 11:15:53;;;;;;;8.07;4.50;;;;;;;-143.84;47.06;45121.44;5091279;28;20424;-81
2023/01/07 11:18:24;;;;;;;7.63;5.73;;;;;;;-143.84;45.79;45117.63;5091310;28;20848;-81
2023/01/07 11:20:52;;;;;;;7.53;5.00;;;;;;;-143.84;46.89;45111.91;5091407;28;20920;-80
2023/01/07 11:23:31;;;;;;;11.53;4.50;;;;;;;-143.84;49.60;45148.09;5091144;28;20532;-81
2023/01/07 11:26:17;;;;;;;5.90;5.30;;;;;;;-143.84;47.96;45104.28;5091319;28;20447;-81
2023/01/07 11:28:51;;;;;;;7.03;5.60;;;;;;;-143.84;45.78;45104.28;5088312;28;20550;-80